sensor_id;sensor_type;location;lat;lon;timestamp;P1;durP1;ratioP1;P2;durP2;ratioP2
47635;SDS011;33364;50.766;15.338;2024-03-08T00:02:17;28.48;;;13.55;;
47635;SDS011;33364;50.766;15.338;2024-03-08T00:04:42;25.17;;;14.63;;
47635;SDS011;33364;50.766;15.338;2024-03-08T00:07:10;28.73;;;14.90;;
47635;SDS011;33364;50.766;15.338;2024-03-08T00:09:36;31.23;;;15.88;;
47635;SDS011;33364;50.766;15.338;2024-03-08T00:12:02;32.33;;;15.15;;
47635;SDS011;33364;50.766;15.338;2024-03-08T00:14:27;33.47;;;14.63;;
47635;SDS011;33364;50.766;15.338;2024-03-08T00:16:53;24.77;;;12.98;;
47635;SDS011;33364;50.766;15.338;2024-03-08T00:19:19;28.02;;;14.60;;
47635;SDS011;33364;50.766;15.338;2024-03-08T00:21:45;31.67;;;16.65;;
47635;SDS011;33364;50.766;15.338;2024-03-08T00:24:11;23.33;;;13.10;;
47635;SDS011;33364;50.766;15.338;2024-03-08T00:26:37;35.25;;;17.05;;
47635;SDS011;33364;50.766;15.338;2024-03-08T00:29:03;31.73;;;16.13;;
47635;SDS011;33364;50.766;15.338;2024-03-08T00:31:29;29.75;;;15.27;;
47635;SDS011;33364;50.766;15.338;2024-03-08T00:33:56;35.85;;;17.50;;
47635;SDS011;33364;50.766;15.338;2024-03-08T00:36:22;36.83;;;17.45;;
47635;SDS011;33364;50.766;15.338;2024-03-08T00:38:48;30.15;;;14.70;;
47635;SDS011;33364;50.766;15.338;2024-03-08T00:41:14;26.67;;;14.43;;
47635;SDS011;33364;50.766;15.338;2024-03-08T00:43:40;28.70;;;14.73;;
47635;SDS011;33364;50.766;15.338;2024-03-08T00:46:05;30.30;;;14.57;;
47635;SDS011;33364;50.766;15.338;2024-03-08T00:48:31;27.70;;;13.60;;
47635;SDS011;33364;50.766;15.338;2024-03-08T00:50:57;35.78;;;16.88;;
47635;SDS011;33364;50.766;15.338;2024-03-08T00:53:23;27.05;;;13.85;;
47635;SDS011;33364;50.766;15.338;2024-03-08T00:55:48;28.98;;;13.75;;
47635;SDS011;33364;50.766;15.338;2024-03-08T00:58:14;28.83;;;14.82;;
47635;SDS011;33364;50.766;15.338;2024-03-08T01:00:41;27.15;;;13.77;;
47635;SDS011;33364;50.766;15.338;2024-03-08T01:03:06;25.95;;;14.02;;
47635;SDS011;33364;50.766;15.338;2024-03-08T01:05:33;25.88;;;14.07;;
47635;SDS011;33364;50.766;15.338;2024-03-08T01:08:00;31.25;;;15.77;;
47635;SDS011;33364;50.766;15.338;2024-03-08T01:10:28;23.75;;;13.18;;
47635;SDS011;33364;50.766;15.338;2024-03-08T01:12:54;35.22;;;14.75;;
47635;SDS011;33364;50.766;15.338;2024-03-08T01:15:22;29.17;;;14.18;;
47635;SDS011;33364;50.766;15.338;2024-03-08T01:17:48;27.75;;;14.55;;
47635;SDS011;33364;50.766;15.338;2024-03-08T01:20:15;28.83;;;14.95;;
47635;SDS011;33364;50.766;15.338;2024-03-08T01:22:43;25.42;;;13.30;;
47635;SDS011;33364;50.766;15.338;2024-03-08T01:25:09;29.45;;;14.50;;
47635;SDS011;33364;50.766;15.338;2024-03-08T01:27:35;28.30;;;13.80;;
47635;SDS011;33364;50.766;15.338;2024-03-08T01:30:02;22.73;;;12.02;;
47635;SDS011;33364;50.766;15.338;2024-03-08T01:32:29;29.02;;;14.43;;
47635;SDS011;33364;50.766;15.338;2024-03-08T01:34:55;30.60;;;14.68;;
47635;SDS011;33364;50.766;15.338;2024-03-08T01:37:20;27.33;;;13.75;;
47635;SDS011;33364;50.766;15.338;2024-03-08T01:39:46;25.23;;;14.02;;
47635;SDS011;33364;50.766;15.338;2024-03-08T01:42:12;27.60;;;13.95;;
47635;SDS011;33364;50.766;15.338;2024-03-08T01:44:40;24.48;;;13.48;;
47635;SDS011;33364;50.766;15.338;2024-03-08T01:47:06;24.98;;;13.60;;
47635;SDS011;33364;50.766;15.338;2024-03-08T01:49:33;25.75;;;13.63;;
47635;SDS011;33364;50.766;15.338;2024-03-08T01:51:58;24.80;;;12.27;;
47635;SDS011;33364;50.766;15.338;2024-03-08T01:54:25;25.40;;;13.75;;
47635;SDS011;33364;50.766;15.338;2024-03-08T01:56:52;25.92;;;13.98;;
47635;SDS011;33364;50.766;15.338;2024-03-08T01:59:19;26.52;;;13.50;;
47635;SDS011;33364;50.766;15.338;2024-03-08T02:01:44;26.13;;;13.55;;
47635;SDS011;33364;50.766;15.338;2024-03-08T02:04:11;24.67;;;13.23;;
47635;SDS011;33364;50.766;15.338;2024-03-08T02:06:36;26.38;;;14.27;;
47635;SDS011;33364;50.766;15.338;2024-03-08T02:09:03;24.95;;;14.10;;
47635;SDS011;33364;50.766;15.338;2024-03-08T02:11:33;24.65;;;13.73;;
47635;SDS011;33364;50.766;15.338;2024-03-08T02:14:00;25.80;;;13.85;;
47635;SDS011;33364;50.766;15.338;2024-03-08T02:16:25;26.92;;;14.70;;
47635;SDS011;33364;50.766;15.338;2024-03-08T02:18:51;27.30;;;14.00;;
47635;SDS011;33364;50.766;15.338;2024-03-08T02:21:17;27.33;;;13.80;;
47635;SDS011;33364;50.766;15.338;2024-03-08T02:23:44;28.30;;;14.45;;
47635;SDS011;33364;50.766;15.338;2024-03-08T02:26:09;32.42;;;15.02;;
47635;SDS011;33364;50.766;15.338;2024-03-08T02:28:36;26.80;;;14.50;;
47635;SDS011;33364;50.766;15.338;2024-03-08T02:31:01;27.17;;;13.90;;
47635;SDS011;33364;50.766;15.338;2024-03-08T02:33:28;29.33;;;14.52;;
47635;SDS011;33364;50.766;15.338;2024-03-08T02:35:54;25.63;;;13.38;;
47635;SDS011;33364;50.766;15.338;2024-03-08T02:38:22;28.17;;;15.32;;
47635;SDS011;33364;50.766;15.338;2024-03-08T02:40:50;25.40;;;13.55;;
47635;SDS011;33364;50.766;15.338;2024-03-08T02:43:18;28.90;;;13.95;;
47635;SDS011;33364;50.766;15.338;2024-03-08T02:45:45;30.25;;;14.80;;
47635;SDS011;33364;50.766;15.338;2024-03-08T02:48:11;31.25;;;15.73;;
47635;SDS011;33364;50.766;15.338;2024-03-08T02:50:38;35.08;;;15.80;;
47635;SDS011;33364;50.766;15.338;2024-03-08T02:53:05;30.30;;;16.15;;
47635;SDS011;33364;50.766;15.338;2024-03-08T02:55:32;29.30;;;15.68;;
47635;SDS011;33364;50.766;15.338;2024-03-08T02:58:01;32.72;;;16.20;;
47635;SDS011;33364;50.766;15.338;2024-03-08T03:00:28;31.25;;;16.45;;
47635;SDS011;33364;50.766;15.338;2024-03-08T03:02:56;35.08;;;16.88;;
47635;SDS011;33364;50.766;15.338;2024-03-08T03:05:22;35.78;;;17.42;;
47635;SDS011;33364;50.766;15.338;2024-03-08T03:07:49;32.22;;;16.75;;
47635;SDS011;33364;50.766;15.338;2024-03-08T03:10:18;28.92;;;15.32;;
47635;SDS011;33364;50.766;15.338;2024-03-08T03:12:45;30.80;;;15.55;;
47635;SDS011;33364;50.766;15.338;2024-03-08T03:15:11;25.42;;;14.52;;
47635;SDS011;33364;50.766;15.338;2024-03-08T03:17:38;27.75;;;15.60;;
47635;SDS011;33364;50.766;15.338;2024-03-08T03:20:08;27.42;;;14.68;;
47635;SDS011;33364;50.766;15.338;2024-03-08T03:22:40;30.05;;;15.75;;
47635;SDS011;33364;50.766;15.338;2024-03-08T03:25:09;36.15;;;17.58;;
47635;SDS011;33364;50.766;15.338;2024-03-08T03:27:35;32.53;;;16.70;;
47635;SDS011;33364;50.766;15.338;2024-03-08T03:30:02;32.80;;;16.10;;
47635;SDS011;33364;50.766;15.338;2024-03-08T03:32:49;34.38;;;15.73;;
47635;SDS011;33364;50.766;15.338;2024-03-08T03:35:18;33.45;;;14.60;;
47635;SDS011;33364;50.766;15.338;2024-03-08T03:37:46;25.02;;;13.55;;
47635;SDS011;33364;50.766;15.338;2024-03-08T03:40:41;31.20;;;17.13;;
47635;SDS011;33364;50.766;15.338;2024-03-08T03:43:07;29.40;;;14.65;;
47635;SDS011;33364;50.766;15.338;2024-03-08T03:45:35;30.70;;;14.63;;
47635;SDS011;33364;50.766;15.338;2024-03-08T03:48:04;32.42;;;16.02;;
47635;SDS011;33364;50.766;15.338;2024-03-08T03:50:37;29.63;;;15.35;;
47635;SDS011;33364;50.766;15.338;2024-03-08T03:53:04;31.52;;;15.82;;
47635;SDS011;33364;50.766;15.338;2024-03-08T03:55:33;33.15;;;17.10;;
47635;SDS011;33364;50.766;15.338;2024-03-08T03:57:59;38.70;;;17.95;;
47635;SDS011;33364;50.766;15.338;2024-03-08T04:00:26;28.50;;;15.10;;
47635;SDS011;33364;50.766;15.338;2024-03-08T04:02:52;32.63;;;16.42;;
47635;SDS011;33364;50.766;15.338;2024-03-08T04:05:18;34.42;;;17.50;;
47635;SDS011;33364;50.766;15.338;2024-03-08T04:07:44;30.20;;;16.38;;
47635;SDS011;33364;50.766;15.338;2024-03-08T04:10:10;35.13;;;16.83;;
47635;SDS011;33364;50.766;15.338;2024-03-08T04:12:37;33.95;;;17.33;;
47635;SDS011;33364;50.766;15.338;2024-03-08T04:15:03;31.85;;;15.82;;
47635;SDS011;33364;50.766;15.338;2024-03-08T04:17:35;38.55;;;17.75;;
47635;SDS011;33364;50.766;15.338;2024-03-08T04:20:02;24.10;;;13.27;;
47635;SDS011;33364;50.766;15.338;2024-03-08T04:22:34;25.77;;;13.15;;
47635;SDS011;33364;50.766;15.338;2024-03-08T04:25:01;27.17;;;14.27;;
47635;SDS011;33364;50.766;15.338;2024-03-08T04:27:28;30.05;;;15.15;;
47635;SDS011;33364;50.766;15.338;2024-03-08T04:29:53;28.77;;;14.43;;
47635;SDS011;33364;50.766;15.338;2024-03-08T04:32:19;30.38;;;14.57;;
47635;SDS011;33364;50.766;15.338;2024-03-08T04:34:44;28.33;;;15.02;;
47635;SDS011;33364;50.766;15.338;2024-03-08T04:37:10;28.58;;;15.52;;
47635;SDS011;33364;50.766;15.338;2024-03-08T04:39:38;34.72;;;15.50;;
47635;SDS011;33364;50.766;15.338;2024-03-08T04:42:04;32.10;;;15.18;;
47635;SDS011;33364;50.766;15.338;2024-03-08T04:44:36;29.10;;;15.13;;
47635;SDS011;33364;50.766;15.338;2024-03-08T04:47:03;30.23;;;15.48;;
47635;SDS011;33364;50.766;15.338;2024-03-08T04:49:31;27.08;;;14.45;;
47635;SDS011;33364;50.766;15.338;2024-03-08T04:52:03;29.38;;;15.70;;
47635;SDS011;33364;50.766;15.338;2024-03-08T04:54:32;29.70;;;15.63;;
47635;SDS011;33364;50.766;15.338;2024-03-08T04:56:58;23.67;;;12.98;;
47635;SDS011;33364;50.766;15.338;2024-03-08T04:59:27;27.40;;;13.65;;
47635;SDS011;33364;50.766;15.338;2024-03-08T05:01:53;22.92;;;12.65;;
47635;SDS011;33364;50.766;15.338;2024-03-08T05:04:18;27.55;;;14.13;;
47635;SDS011;33364;50.766;15.338;2024-03-08T05:06:44;31.08;;;14.68;;
47635;SDS011;33364;50.766;15.338;2024-03-08T05:09:10;26.60;;;13.20;;
47635;SDS011;33364;50.766;15.338;2024-03-08T05:11:39;24.80;;;12.43;;
47635;SDS011;33364;50.766;15.338;2024-03-08T05:14:06;27.83;;;14.57;;
47635;SDS011;33364;50.766;15.338;2024-03-08T05:16:31;27.85;;;14.02;;
47635;SDS011;33364;50.766;15.338;2024-03-08T05:18:57;29.20;;;14.65;;
47635;SDS011;33364;50.766;15.338;2024-03-08T05:21:23;28.60;;;13.98;;
47635;SDS011;33364;50.766;15.338;2024-03-08T05:23:49;28.48;;;13.32;;
47635;SDS011;33364;50.766;15.338;2024-03-08T05:26:16;27.42;;;14.50;;
47635;SDS011;33364;50.766;15.338;2024-03-08T05:28:42;28.70;;;14.32;;
47635;SDS011;33364;50.766;15.338;2024-03-08T05:31:08;26.42;;;12.70;;
47635;SDS011;33364;50.766;15.338;2024-03-08T05:33:34;27.80;;;14.70;;
47635;SDS011;33364;50.766;15.338;2024-03-08T05:36:00;25.40;;;13.63;;
47635;SDS011;33364;50.766;15.338;2024-03-08T05:38:29;25.73;;;13.55;;
47635;SDS011;33364;50.766;15.338;2024-03-08T05:40:54;27.40;;;14.45;;
47635;SDS011;33364;50.766;15.338;2024-03-08T05:43:20;29.67;;;14.18;;
47635;SDS011;33364;50.766;15.338;2024-03-08T05:45:46;26.42;;;13.23;;
47635;SDS011;33364;50.766;15.338;2024-03-08T05:48:13;28.42;;;13.50;;
47635;SDS011;33364;50.766;15.338;2024-03-08T05:50:39;24.17;;;12.23;;
47635;SDS011;33364;50.766;15.338;2024-03-08T05:53:05;24.50;;;13.13;;
47635;SDS011;33364;50.766;15.338;2024-03-08T05:55:32;25.48;;;12.45;;
47635;SDS011;33364;50.766;15.338;2024-03-08T05:58:00;24.65;;;12.23;;
47635;SDS011;33364;50.766;15.338;2024-03-08T06:00:27;24.30;;;13.25;;
47635;SDS011;33364;50.766;15.338;2024-03-08T06:02:53;24.27;;;13.20;;
47635;SDS011;33364;50.766;15.338;2024-03-08T06:05:19;21.83;;;11.05;;
47635;SDS011;33364;50.766;15.338;2024-03-08T06:07:45;21.75;;;10.90;;
47635;SDS011;33364;50.766;15.338;2024-03-08T06:10:10;24.17;;;13.43;;
47635;SDS011;33364;50.766;15.338;2024-03-08T06:12:38;24.95;;;12.85;;
47635;SDS011;33364;50.766;15.338;2024-03-08T06:15:07;20.48;;;11.45;;
47635;SDS011;33364;50.766;15.338;2024-03-08T06:17:40;23.23;;;11.15;;
47635;SDS011;33364;50.766;15.338;2024-03-08T06:20:06;24.70;;;12.48;;
47635;SDS011;33364;50.766;15.338;2024-03-08T06:22:37;23.58;;;12.02;;
47635;SDS011;33364;50.766;15.338;2024-03-08T06:25:06;26.95;;;12.73;;
47635;SDS011;33364;50.766;15.338;2024-03-08T06:27:36;26.73;;;12.05;;
47635;SDS011;33364;50.766;15.338;2024-03-08T06:30:02;21.83;;;11.15;;
47635;SDS011;33364;50.766;15.338;2024-03-08T06:32:30;23.13;;;12.30;;
47635;SDS011;33364;50.766;15.338;2024-03-08T06:35:01;21.02;;;11.88;;
47635;SDS011;33364;50.766;15.338;2024-03-08T06:37:28;26.30;;;11.60;;
47635;SDS011;33364;50.766;15.338;2024-03-08T06:39:53;24.50;;;13.10;;
47635;SDS011;33364;50.766;15.338;2024-03-08T06:42:21;20.95;;;11.10;;
47635;SDS011;33364;50.766;15.338;2024-03-08T06:44:46;21.73;;;10.30;;
47635;SDS011;33364;50.766;15.338;2024-03-08T06:47:15;22.63;;;9.85;;
47635;SDS011;33364;50.766;15.338;2024-03-08T06:49:44;22.83;;;9.60;;
47635;SDS011;33364;50.766;15.338;2024-03-08T06:52:10;24.55;;;10.80;;
47635;SDS011;33364;50.766;15.338;2024-03-08T06:54:36;20.02;;;11.40;;
47635;SDS011;33364;50.766;15.338;2024-03-08T06:57:03;38.00;;;16.73;;
47635;SDS011;33364;50.766;15.338;2024-03-08T06:59:29;38.58;;;20.95;;
47635;SDS011;33364;50.766;15.338;2024-03-08T07:01:55;38.17;;;18.90;;
47635;SDS011;33364;50.766;15.338;2024-03-08T07:04:21;28.73;;;15.50;;
47635;SDS011;33364;50.766;15.338;2024-03-08T07:06:47;23.70;;;11.80;;
47635;SDS011;33364;50.766;15.338;2024-03-08T07:09:15;26.25;;;13.32;;
47635;SDS011;33364;50.766;15.338;2024-03-08T07:11:44;25.45;;;14.23;;
47635;SDS011;33364;50.766;15.338;2024-03-08T07:14:09;26.77;;;14.93;;
47635;SDS011;33364;50.766;15.338;2024-03-08T07:16:35;35.20;;;17.52;;
47635;SDS011;33364;50.766;15.338;2024-03-08T07:19:01;33.30;;;17.40;;
47635;SDS011;33364;50.766;15.338;2024-03-08T07:21:28;41.90;;;18.48;;
47635;SDS011;33364;50.766;15.338;2024-03-08T07:23:54;35.35;;;16.02;;
47635;SDS011;33364;50.766;15.338;2024-03-08T07:26:26;37.70;;;18.30;;
47635;SDS011;33364;50.766;15.338;2024-03-08T07:28:51;25.15;;;14.00;;
47635;SDS011;33364;50.766;15.338;2024-03-08T07:31:17;32.35;;;14.55;;
47635;SDS011;33364;50.766;15.338;2024-03-08T07:34:10;23.77;;;13.20;;
47635;SDS011;33364;50.766;15.338;2024-03-08T07:36:36;30.13;;;13.25;;
47635;SDS011;33364;50.766;15.338;2024-03-08T07:39:02;23.75;;;13.57;;
47635;SDS011;33364;50.766;15.338;2024-03-08T07:41:31;22.33;;;12.80;;
47635;SDS011;33364;50.766;15.338;2024-03-08T07:43:56;21.35;;;11.20;;
47635;SDS011;33364;50.766;15.338;2024-03-08T07:46:22;21.05;;;10.95;;
47635;SDS011;33364;50.766;15.338;2024-03-08T07:48:48;23.73;;;12.13;;
47635;SDS011;33364;50.766;15.338;2024-03-08T07:51:17;20.77;;;11.90;;
47635;SDS011;33364;50.766;15.338;2024-03-08T07:53:45;27.77;;;11.15;;
47635;SDS011;33364;50.766;15.338;2024-03-08T07:56:11;18.65;;;10.70;;
47635;SDS011;33364;50.766;15.338;2024-03-08T07:58:39;16.75;;;8.73;;
47635;SDS011;33364;50.766;15.338;2024-03-08T08:01:15;31.10;;;12.45;;
47635;SDS011;33364;50.766;15.338;2024-03-08T08:03:41;106.35;;;33.90;;
47635;SDS011;33364;50.766;15.338;2024-03-08T08:06:07;41.10;;;18.00;;
47635;SDS011;33364;50.766;15.338;2024-03-08T08:08:33;25.27;;;11.93;;
47635;SDS011;33364;50.766;15.338;2024-03-08T08:10:59;22.00;;;11.13;;
47635;SDS011;33364;50.766;15.338;2024-03-08T08:13:26;16.40;;;10.70;;
47635;SDS011;33364;50.766;15.338;2024-03-08T08:15:53;17.73;;;10.15;;
47635;SDS011;33364;50.766;15.338;2024-03-08T08:18:19;15.98;;;9.95;;
47635;SDS011;33364;50.766;15.338;2024-03-08T08:20:47;18.08;;;9.98;;
47635;SDS011;33364;50.766;15.338;2024-03-08T08:23:13;18.63;;;9.85;;
47635;SDS011;33364;50.766;15.338;2024-03-08T08:25:39;17.20;;;9.80;;
47635;SDS011;33364;50.766;15.338;2024-03-08T08:28:04;18.98;;;9.25;;
47635;SDS011;33364;50.766;15.338;2024-03-08T08:30:31;24.58;;;13.90;;
47635;SDS011;33364;50.766;15.338;2024-03-08T08:32:58;21.23;;;12.82;;
47635;SDS011;33364;50.766;15.338;2024-03-08T08:35:26;15.20;;;9.68;;
47635;SDS011;33364;50.766;15.338;2024-03-08T08:37:52;20.23;;;10.70;;
47635;SDS011;33364;50.766;15.338;2024-03-08T08:40:18;20.45;;;9.50;;
47635;SDS011;33364;50.766;15.338;2024-03-08T08:42:44;13.95;;;8.43;;
47635;SDS011;33364;50.766;15.338;2024-03-08T08:45:11;15.55;;;8.75;;
47635;SDS011;33364;50.766;15.338;2024-03-08T08:47:37;19.95;;;9.90;;
47635;SDS011;33364;50.766;15.338;2024-03-08T08:50:03;20.90;;;10.80;;
47635;SDS011;33364;50.766;15.338;2024-03-08T08:52:33;52.15;;;26.52;;
47635;SDS011;33364;50.766;15.338;2024-03-08T08:55:00;49.00;;;23.70;;
47635;SDS011;33364;50.766;15.338;2024-03-08T08:57:26;103.78;;;45.42;;
47635;SDS011;33364;50.766;15.338;2024-03-08T08:59:53;122.25;;;46.67;;
47635;SDS011;33364;50.766;15.338;2024-03-08T09:02:20;98.15;;;43.40;;
47635;SDS011;33364;50.766;15.338;2024-03-08T09:04:46;43.55;;;22.80;;
47635;SDS011;33364;50.766;15.338;2024-03-08T09:07:13;39.47;;;18.58;;
47635;SDS011;33364;50.766;15.338;2024-03-08T09:09:39;97.65;;;33.53;;
47635;SDS011;33364;50.766;15.338;2024-03-08T09:12:05;118.57;;;39.72;;
47635;SDS011;33364;50.766;15.338;2024-03-08T09:14:31;71.55;;;28.25;;
47635;SDS011;33364;50.766;15.338;2024-03-08T09:16:56;59.58;;;27.63;;
47635;SDS011;33364;50.766;15.338;2024-03-08T09:19:22;19.92;;;11.80;;
47635;SDS011;33364;50.766;15.338;2024-03-08T09:21:51;14.73;;;8.52;;
47635;SDS011;33364;50.766;15.338;2024-03-08T09:24:17;15.43;;;8.82;;
47635;SDS011;33364;50.766;15.338;2024-03-08T09:26:43;13.90;;;8.82;;
47635;SDS011;33364;50.766;15.338;2024-03-08T09:29:09;14.82;;;8.77;;
47635;SDS011;33364;50.766;15.338;2024-03-08T09:31:36;16.20;;;8.55;;
47635;SDS011;33364;50.766;15.338;2024-03-08T09:34:03;16.70;;;8.05;;
47635;SDS011;33364;50.766;15.338;2024-03-08T09:36:29;14.57;;;9.35;;
47635;SDS011;33364;50.766;15.338;2024-03-08T09:38:56;15.93;;;9.82;;
47635;SDS011;33364;50.766;15.338;2024-03-08T09:41:22;15.68;;;9.18;;
47635;SDS011;33364;50.766;15.338;2024-03-08T09:43:48;14.55;;;9.23;;
47635;SDS011;33364;50.766;15.338;2024-03-08T09:46:14;15.05;;;9.10;;
47635;SDS011;33364;50.766;15.338;2024-03-08T09:48:41;18.20;;;9.45;;
47635;SDS011;33364;50.766;15.338;2024-03-08T09:51:06;15.00;;;9.38;;
47635;SDS011;33364;50.766;15.338;2024-03-08T09:53:33;18.23;;;10.02;;
47635;SDS011;33364;50.766;15.338;2024-03-08T09:55:58;18.20;;;11.98;;
47635;SDS011;33364;50.766;15.338;2024-03-08T09:58:24;16.70;;;9.98;;
47635;SDS011;33364;50.766;15.338;2024-03-08T10:00:53;42.95;;;20.95;;
47635;SDS011;33364;50.766;15.338;2024-03-08T10:03:20;43.80;;;18.55;;
47635;SDS011;33364;50.766;15.338;2024-03-08T10:05:45;23.67;;;14.48;;
47635;SDS011;33364;50.766;15.338;2024-03-08T10:08:12;30.02;;;15.77;;
47635;SDS011;33364;50.766;15.338;2024-03-08T10:10:38;26.05;;;13.52;;
47635;SDS011;33364;50.766;15.338;2024-03-08T10:13:08;22.48;;;12.02;;
47635;SDS011;33364;50.766;15.338;2024-03-08T10:15:38;52.92;;;20.45;;
47635;SDS011;33364;50.766;15.338;2024-03-08T10:18:06;29.20;;;12.30;;
47635;SDS011;33364;50.766;15.338;2024-03-08T10:20:32;87.18;;;28.83;;
47635;SDS011;33364;50.766;15.338;2024-03-08T10:22:59;59.70;;;19.80;;
47635;SDS011;33364;50.766;15.338;2024-03-08T10:25:33;21.50;;;10.35;;
47635;SDS011;33364;50.766;15.338;2024-03-08T10:28:00;18.08;;;8.95;;
47635;SDS011;33364;50.766;15.338;2024-03-08T10:30:29;37.88;;;12.30;;
47635;SDS011;33364;50.766;15.338;2024-03-08T10:32:55;17.45;;;8.65;;
47635;SDS011;33364;50.766;15.338;2024-03-08T10:35:21;10.18;;;5.97;;
47635;SDS011;33364;50.766;15.338;2024-03-08T10:37:48;18.55;;;8.52;;
47635;SDS011;33364;50.766;15.338;2024-03-08T10:40:24;11.85;;;6.07;;
47635;SDS011;33364;50.766;15.338;2024-03-08T10:42:54;9.57;;;6.30;;
47635;SDS011;33364;50.766;15.338;2024-03-08T10:45:30;10.63;;;6.90;;
47635;SDS011;33364;50.766;15.338;2024-03-08T10:50:48;10.13;;;5.53;;
47635;SDS011;33364;50.766;15.338;2024-03-08T10:53:17;10.50;;;6.20;;
47635;SDS011;33364;50.766;15.338;2024-03-08T10:55:46;9.48;;;6.07;;
47635;SDS011;33364;50.766;15.338;2024-03-08T10:58:13;11.48;;;6.05;;
47635;SDS011;33364;50.766;15.338;2024-03-08T11:00:39;7.95;;;4.95;;
47635;SDS011;33364;50.766;15.338;2024-03-08T11:03:07;9.05;;;5.20;;
47635;SDS011;33364;50.766;15.338;2024-03-08T11:05:40;7.85;;;5.00;;
47635;SDS011;33364;50.766;15.338;2024-03-08T11:08:19;14.10;;;4.50;;
47635;SDS011;33364;50.766;15.338;2024-03-08T11:15:59;7.35;;;5.05;;
47635;SDS011;33364;50.766;15.338;2024-03-08T11:18:26;9.50;;;6.40;;
47635;SDS011;33364;50.766;15.338;2024-03-08T11:20:55;10.23;;;7.25;;
47635;SDS011;33364;50.766;15.338;2024-03-08T11:23:24;10.68;;;7.13;;
47635;SDS011;33364;50.766;15.338;2024-03-08T11:25:51;13.30;;;8.18;;
47635;SDS011;33364;50.766;15.338;2024-03-08T11:28:18;15.93;;;8.77;;
47635;SDS011;33364;50.766;15.338;2024-03-08T11:30:46;12.82;;;7.70;;
47635;SDS011;33364;50.766;15.338;2024-03-08T11:33:34;14.98;;;9.60;;
47635;SDS011;33364;50.766;15.338;2024-03-08T11:38:45;10.32;;;7.57;;
47635;SDS011;33364;50.766;15.338;2024-03-08T11:41:15;11.38;;;7.55;;
47635;SDS011;33364;50.766;15.338;2024-03-08T11:43:43;17.20;;;6.97;;
47635;SDS011;33364;50.766;15.338;2024-03-08T11:46:13;11.57;;;8.07;;
47635;SDS011;33364;50.766;15.338;2024-03-08T11:48:40;12.43;;;7.80;;
47635;SDS011;33364;50.766;15.338;2024-03-08T11:51:12;14.98;;;9.68;;
47635;SDS011;33364;50.766;15.338;2024-03-08T11:53:39;18.55;;;11.85;;
47635;SDS011;33364;50.766;15.338;2024-03-08T11:56:06;20.75;;;14.13;;
47635;SDS011;33364;50.766;15.338;2024-03-08T11:58:33;23.35;;;13.13;;
47635;SDS011;33364;50.766;15.338;2024-03-08T12:01:05;25.85;;;15.70;;
47635;SDS011;33364;50.766;15.338;2024-03-08T12:03:31;20.83;;;11.63;;
47635;SDS011;33364;50.766;15.338;2024-03-08T12:05:59;16.08;;;10.38;;
47635;SDS011;33364;50.766;15.338;2024-03-08T12:08:26;13.77;;;8.70;;
47635;SDS011;33364;50.766;15.338;2024-03-08T12:10:53;15.85;;;9.27;;
47635;SDS011;33364;50.766;15.338;2024-03-08T12:13:28;14.40;;;9.35;;
47635;SDS011;33364;50.766;15.338;2024-03-08T12:15:59;17.75;;;9.88;;
47635;SDS011;33364;50.766;15.338;2024-03-08T12:18:35;13.52;;;7.95;;
47635;SDS011;33364;50.766;15.338;2024-03-08T12:21:06;12.48;;;7.80;;
47635;SDS011;33364;50.766;15.338;2024-03-08T12:23:36;10.60;;;7.22;;
47635;SDS011;33364;50.766;15.338;2024-03-08T12:26:11;10.65;;;6.60;;
47635;SDS011;33364;50.766;15.338;2024-03-08T12:28:44;59.75;;;33.30;;
47635;SDS011;33364;50.766;15.338;2024-03-08T12:31:14;11.20;;;7.72;;
47635;SDS011;33364;50.766;15.338;2024-03-08T12:33:53;8.95;;;6.15;;
47635;SDS011;33364;50.766;15.338;2024-03-08T12:36:21;11.10;;;6.18;;
47635;SDS011;33364;50.766;15.338;2024-03-08T12:38:47;10.35;;;6.00;;
47635;SDS011;33364;50.766;15.338;2024-03-08T12:41:14;8.88;;;5.75;;
47635;SDS011;33364;50.766;15.338;2024-03-08T12:43:41;8.57;;;5.53;;
47635;SDS011;33364;50.766;15.338;2024-03-08T12:46:07;8.45;;;5.65;;
47635;SDS011;33364;50.766;15.338;2024-03-08T12:48:34;11.23;;;6.10;;
47635;SDS011;33364;50.766;15.338;2024-03-08T12:51:06;7.07;;;5.15;;
47635;SDS011;33364;50.766;15.338;2024-03-08T12:53:33;11.35;;;5.95;;
47635;SDS011;33364;50.766;15.338;2024-03-08T12:55:58;8.15;;;6.03;;
47635;SDS011;33364;50.766;15.338;2024-03-08T12:58:24;11.20;;;6.65;;
47635;SDS011;33364;50.766;15.338;2024-03-08T13:00:51;7.95;;;5.68;;
47635;SDS011;33364;50.766;15.338;2024-03-08T13:03:17;14.20;;;5.78;;
47635;SDS011;33364;50.766;15.338;2024-03-08T13:05:43;8.55;;;5.97;;
47635;SDS011;33364;50.766;15.338;2024-03-08T13:08:09;13.40;;;7.68;;
47635;SDS011;33364;50.766;15.338;2024-03-08T13:10:38;10.07;;;5.80;;
47635;SDS011;33364;50.766;15.338;2024-03-08T13:13:05;11.45;;;6.10;;
47635;SDS011;33364;50.766;15.338;2024-03-08T13:15:30;14.70;;;7.97;;
47635;SDS011;33364;50.766;15.338;2024-03-08T13:17:56;8.75;;;5.70;;
47635;SDS011;33364;50.766;15.338;2024-03-08T13:20:25;8.13;;;5.10;;
47635;SDS011;33364;50.766;15.338;2024-03-08T13:22:53;7.22;;;5.47;;
47635;SDS011;33364;50.766;15.338;2024-03-08T13:25:20;8.43;;;5.15;;
47635;SDS011;33364;50.766;15.338;2024-03-08T13:27:46;6.28;;;4.50;;
47635;SDS011;33364;50.766;15.338;2024-03-08T13:30:12;9.23;;;5.50;;
47635;SDS011;33364;50.766;15.338;2024-03-08T13:32:43;10.38;;;5.88;;
47635;SDS011;33364;50.766;15.338;2024-03-08T13:35:10;6.38;;;4.78;;
47635;SDS011;33364;50.766;15.338;2024-03-08T13:37:40;8.30;;;4.95;;
47635;SDS011;33364;50.766;15.338;2024-03-08T13:40:06;8.68;;;5.50;;
47635;SDS011;33364;50.766;15.338;2024-03-08T13:42:37;8.05;;;5.07;;
47635;SDS011;33364;50.766;15.338;2024-03-08T13:45:04;50.58;;;25.33;;
47635;SDS011;33364;50.766;15.338;2024-03-08T13:47:32;10.55;;;5.82;;
47635;SDS011;33364;50.766;15.338;2024-03-08T13:49:59;9.45;;;6.47;;
47635;SDS011;33364;50.766;15.338;2024-03-08T13:52:26;34.40;;;8.40;;
47635;SDS011;33364;50.766;15.338;2024-03-08T13:54:54;12.70;;;6.05;;
47635;SDS011;33364;50.766;15.338;2024-03-08T13:57:21;8.57;;;5.75;;
47635;SDS011;33364;50.766;15.338;2024-03-08T13:59:47;14.48;;;7.75;;
47635;SDS011;33364;50.766;15.338;2024-03-08T14:02:16;7.95;;;5.75;;
47635;SDS011;33364;50.766;15.338;2024-03-08T14:04:42;11.95;;;5.55;;
47635;SDS011;33364;50.766;15.338;2024-03-08T14:07:08;8.15;;;5.30;;
47635;SDS011;33364;50.766;15.338;2024-03-08T14:09:36;9.80;;;5.32;;
47635;SDS011;33364;50.766;15.338;2024-03-08T14:12:03;8.25;;;5.47;;
47635;SDS011;33364;50.766;15.338;2024-03-08T14:14:32;13.75;;;7.57;;
47635;SDS011;33364;50.766;15.338;2024-03-08T14:17:03;10.50;;;6.10;;
47635;SDS011;33364;50.766;15.338;2024-03-08T14:19:29;9.50;;;5.43;;
47635;SDS011;33364;50.766;15.338;2024-03-08T14:21:59;9.32;;;4.95;;
47635;SDS011;33364;50.766;15.338;2024-03-08T14:24:25;10.02;;;5.45;;
47635;SDS011;33364;50.766;15.338;2024-03-08T14:26:51;11.10;;;5.25;;